In Rescue
 
Open Full Screen Window  High Contrast Mode
Wind Gusting 00 knots
06
May 25, 2022 9:00 PM EDT
Weather Information
Wind Direction
  110 °
Wind Speed
  06 kt (7 mph)
Wind Gust
  00 kt (0 mph)
Altimeter
29.95 in
Visibility
10 SM
Temperature
18° C
64° F
Dewpoint
15° C
59° F
Humidity
83%
1hr Rain Fall
00.00 in.
24hr Rain Fall
00.02 in.
Sky Condition
Clear
VFR

METAR KTTF 260100Z AUTO 11006KT 10SM CLR 18/15 A2995 RMK AO2 T01750152

FAA Disclaimer: The data displayed is for advisory purposes only and is not to be used for flight planning or operations.